This is the latest recevied weather packets stored in our database for station/object WA1RYQ. If no packets are shown the sender has not sent any weather packets the latest 10 day(s).
| Time | Temp. | Humidity | Pressure | Rain* | Wind** | Luminosity | Snow |
|---|---|---|---|---|---|---|---|
| 1777248958 | 23.33° C | 81% | 1012 hPa | 0 mm | - | 0 W/m² | - |
| 1777246216 | 24.44° C | 78% | 1012.1 hPa | 0 mm | - | 23 W/m² | - |
| 1777245325 | 24.44° C | 78% | 1011.9 hPa | 0 mm | - | 30 W/m² | - |
| 1777244440 | 24.44° C | 77% | 1011.9 hPa | 0 mm | - | 25 W/m² | - |
| 1777242918 | 25.56° C | 74% | 1011.8 hPa | 0 mm | - | 33 W/m² | - |
| 1777242364 | 25.56° C | 74% | 1012 hPa | 0 mm | - | 35 W/m² | - |
| 1777241116 | 25.56° C | 73% | 1011.9 hPa | 0 mm | - | 40 W/m² | - |
| 1777240855 | 25.56° C | 74% | 1012 hPa | 0 mm | - | 40 W/m² | - |
| 1777236344 | 26.67° C | 71% | 1012 hPa | 0 mm | - | 628 W/m² | - |
| 1777235724 | 26.67° C | 71% | 1012.1 hPa | 0 mm | - | 647 W/m² | - |
| 1777235443 | 26.67° C | 72% | 1012.1 hPa | 0 mm | - | 649 W/m² | - |
| 1777235102 | 26.67° C | 71% | 1012 hPa | 0 mm | - | 647 W/m² | - |
| 1777234259 | 27.22° C | 70% | 1012.1 hPa | 0 mm | - | 626 W/m² | - |
| 1777234202 | 27.22° C | 69% | 1012.1 hPa | 0 mm | - | 626 W/m² | - |
| 1777232112 | 26.67° C | 70% | 1012.2 hPa | 0 mm | - | 773 W/m² | - |
| 1777230643 | 27.78° C | 69% | 1012.4 hPa | 0 mm | - | 863 W/m² | - |
| 1777230326 | 27.78° C | 69% | 1012.5 hPa | 0 mm | - | 863 W/m² | - |
| 1777229424 | 27.78° C | 68% | 1012.6 hPa | 0 mm | - | 874 W/m² | - |
| 1777228806 | 27.78° C | 67% | 1012.7 hPa | 0 mm | - | 888 W/m² | - |
| 1777227012 | 27.22° C | 67% | 1012.6 hPa | 0 mm | - | 914 W/m² | - |
| 1777226734 | 27.22° C | 69% | 1012.7 hPa | 0 mm | - | 914 W/m² | - |
| 1777225211 | 27.22° C | 67% | 1012.8 hPa | 0 mm | - | 921 W/m² | - |
| 1777224053 | 27.22° C | 67% | 1012.8 hPa | 0 mm | - | 923 W/m² | - |
| 1777223153 | 27.78° C | 68% | 1013 hPa | 0 mm | - | 919 W/m² | - |
| 1777222535 | 27.22° C | 70% | 1013.1 hPa | 0 mm | - | 914 W/m² | - |
* Rain latest hour (hover to see other rain measurements)
** Current wind speed in m/s (hover to see current wind gust speed)